createdAt,value
2023-01-23T00:01:35.102Z,26.47
2023-01-23T00:04:03.650Z,28.87
2023-01-23T00:06:32.305Z,31.63
2023-01-23T00:09:00.494Z,29.70
2023-01-23T00:11:31.981Z,28.00
2023-01-23T00:14:01.665Z,26.97
2023-01-23T00:16:31.779Z,25.80
2023-01-23T00:19:01.469Z,30.10
2023-01-23T00:21:31.056Z,30.00
2023-01-23T00:24:01.520Z,23.77
2023-01-23T00:26:32.782Z,24.40
2023-01-23T00:29:01.270Z,23.87
2023-01-23T00:31:31.681Z,20.47
2023-01-23T00:34:03.975Z,20.27
2023-01-23T00:36:34.431Z,19.77
2023-01-23T00:39:03.595Z,25.40
2023-01-23T00:41:31.746Z,23.20
2023-01-23T00:44:00.100Z,25.10
2023-01-23T00:46:28.441Z,22.37
2023-01-23T00:48:58.402Z,22.33
2023-01-23T00:51:28.567Z,24.07
2023-01-23T00:53:57.045Z,21.40
2023-01-23T00:56:25.316Z,20.20
2023-01-23T00:58:55.044Z,20.50
2023-01-23T01:01:23.892Z,21.40
2023-01-23T01:03:52.144Z,18.93
2023-01-23T01:06:20.355Z,21.97
2023-01-23T01:08:50.255Z,25.30
2023-01-23T01:11:18.995Z,27.70
2023-01-23T01:13:47.281Z,31.60
2023-01-23T01:16:15.436Z,28.50
2023-01-23T01:18:44.251Z,32.53
2023-01-23T01:21:14.859Z,33.03
2023-01-23T01:23:43.311Z,37.53
2023-01-23T01:26:12.928Z,32.93
2023-01-23T01:28:42.291Z,36.60
2023-01-23T01:31:14.827Z,36.00
2023-01-23T01:33:44.321Z,34.63
2023-01-23T01:36:14.088Z,40.50
2023-01-23T01:38:42.303Z,37.83
2023-01-23T01:41:14.441Z,33.90
2023-01-23T01:43:43.080Z,34.33
2023-01-23T01:46:20.541Z,34.37
2023-01-23T01:48:56.335Z,33.60
2023-01-23T01:51:28.487Z,29.10
2023-01-23T01:54:03.263Z,27.20
2023-01-23T01:56:38.049Z,25.10
2023-01-23T01:59:07.662Z,24.70
2023-01-23T02:01:36.803Z,24.70
2023-01-23T02:04:08.461Z,23.20
2023-01-23T02:06:37.143Z,25.10
2023-01-23T02:09:11.048Z,24.90
2023-01-23T02:11:40.759Z,25.63
2023-01-23T02:14:10.436Z,28.43
2023-01-23T02:16:43.781Z,28.00
2023-01-23T02:19:25.660Z,31.83
2023-01-23T02:21:59.265Z,30.17
2023-01-23T02:24:32.308Z,30.63
2023-01-23T02:27:03.180Z,30.87
2023-01-23T02:29:42.207Z,30.60
2023-01-23T02:32:11.083Z,30.20
2023-01-23T02:34:39.675Z,27.70
2023-01-23T02:37:10.061Z,29.27
2023-01-23T02:39:39.574Z,32.43
2023-01-23T02:42:11.358Z,27.83
2023-01-23T02:44:45.980Z,31.53
2023-01-23T02:47:16.403Z,31.93
2023-01-23T02:49:44.979Z,30.83
2023-01-23T02:52:13.204Z,27.60
2023-01-23T02:54:41.393Z,29.50
2023-01-23T02:57:13.083Z,27.53
2023-01-23T02:59:58.706Z,27.83
2023-01-23T03:02:27.856Z,31.50
2023-01-23T03:04:56.125Z,28.77
2023-01-23T03:07:24.355Z,26.97
2023-01-23T03:09:53.520Z,25.63
2023-01-23T03:12:23.111Z,23.70
2023-01-23T03:14:54.751Z,24.87
2023-01-23T03:17:23.163Z,25.73
2023-01-23T03:19:51.869Z,24.07
2023-01-23T03:22:20.231Z,23.00
2023-01-23T03:24:48.519Z,23.40
2023-01-23T03:27:17.113Z,28.13
2023-01-23T03:30:09.124Z,24.40
2023-01-23T03:32:38.773Z,25.10
2023-01-23T03:35:10.295Z,22.90
2023-01-23T03:37:38.860Z,23.50
2023-01-23T03:40:25.244Z,20.93
2023-01-23T03:42:54.758Z,21.77
2023-01-23T03:45:29.894Z,24.70
2023-01-23T03:47:58.179Z,23.90
2023-01-23T03:50:26.682Z,22.70
2023-01-23T03:52:54.935Z,19.80
2023-01-23T03:55:23.142Z,20.80
2023-01-23T03:57:51.501Z,22.70
2023-01-23T04:00:20.725Z,21.33
2023-01-23T04:03:02.246Z,22.40
2023-01-23T04:05:30.689Z,22.57
2023-01-23T04:07:58.887Z,19.13
2023-01-23T04:10:27.654Z,21.63
2023-01-23T04:13:02.375Z,21.73
2023-01-23T04:15:32.866Z,22.53
2023-01-23T04:18:03.841Z,19.40
2023-01-23T04:20:32.066Z,21.40
2023-01-23T04:23:00.761Z,20.00
2023-01-23T04:25:30.675Z,20.53
2023-01-23T04:27:58.839Z,19.73
2023-01-23T04:30:27.179Z,25.10
2023-01-23T04:32:56.325Z,22.00
2023-01-23T04:35:25.901Z,21.50
2023-01-23T04:37:54.100Z,20.87
2023-01-23T04:40:22.653Z,21.50
2023-01-23T04:42:57.385Z,21.00
2023-01-23T04:45:44.990Z,21.77
2023-01-23T04:48:42.297Z,21.40
2023-01-23T04:51:12.305Z,21.33
2023-01-23T04:53:40.629Z,21.50
2023-01-23T04:56:09.359Z,22.50
2023-01-23T04:58:38.030Z,24.20
2023-01-23T05:01:08.754Z,19.57
2023-01-23T05:03:38.906Z,22.00
2023-01-23T05:06:07.795Z,22.00
2023-01-23T05:08:38.138Z,19.33
2023-01-23T05:11:16.541Z,21.10
2023-01-23T05:13:45.623Z,19.37
2023-01-23T05:16:15.912Z,18.83
2023-01-23T05:19:04.188Z,20.80
2023-01-23T05:21:33.714Z,22.50
2023-01-23T05:24:03.511Z,23.20
2023-01-23T05:26:31.939Z,26.57
2023-01-23T05:29:00.146Z,28.73
2023-01-23T05:31:28.827Z,26.40
2023-01-23T05:34:20.117Z,23.40
2023-01-23T05:36:48.830Z,24.10
2023-01-23T05:39:19.696Z,27.27
2023-01-23T05:41:48.297Z,26.97
2023-01-23T05:44:41.991Z,25.80
2023-01-23T05:47:16.513Z,26.47
2023-01-23T05:49:45.883Z,39.97
2023-01-23T05:52:14.268Z,41.40
2023-01-23T05:54:43.931Z,46.33
2023-01-23T05:57:14.290Z,64.63
2023-01-23T06:00:01.328Z,57.50
2023-01-23T06:02:49.988Z,49.37
2023-01-23T06:05:30.668Z,46.90
2023-01-23T06:08:06.171Z,25.90
2023-01-23T06:10:38.569Z,23.63
2023-01-23T06:13:07.067Z,22.67
2023-01-23T06:15:37.472Z,19.97
2023-01-23T06:18:11.862Z,22.57
2023-01-23T06:20:40.386Z,23.40
2023-01-23T06:23:09.683Z,19.37
2023-01-23T06:25:40.316Z,19.57
2023-01-23T06:28:11.728Z,20.60
2023-01-23T06:30:40.120Z,23.10
2023-01-23T06:33:19.715Z,19.40
2023-01-23T06:35:48.291Z,20.20
2023-01-23T06:38:16.432Z,19.03
2023-01-23T06:40:47.019Z,22.60
2023-01-23T06:43:29.272Z,22.90
2023-01-23T06:45:58.098Z,24.00
2023-01-23T06:48:26.931Z,21.57
2023-01-23T06:50:55.306Z,27.77
2023-01-23T06:53:23.588Z,25.23
2023-01-23T06:55:55.216Z,25.60
2023-01-23T06:58:23.761Z,26.33
2023-01-23T07:00:52.040Z,27.40
2023-01-23T07:03:40.532Z,26.80
2023-01-23T07:06:09.648Z,28.60
2023-01-23T07:08:37.877Z,24.30
2023-01-23T07:11:08.478Z,24.33
2023-01-23T07:13:37.170Z,24.83
2023-01-23T07:16:07.225Z,20.03
2023-01-23T07:18:36.058Z,21.40
2023-01-23T07:21:08.162Z,23.30
2023-01-23T07:23:36.542Z,26.07
2023-01-23T07:26:09.728Z,21.33
2023-01-23T07:28:38.383Z,20.00
2023-01-23T07:31:07.565Z,19.90
2023-01-23T07:33:35.981Z,24.47
2023-01-23T07:36:07.073Z,21.57
2023-01-23T07:38:35.747Z,23.00
2023-01-23T07:41:03.984Z,20.90
2023-01-23T07:43:33.580Z,24.20
2023-01-23T07:46:01.731Z,20.20
2023-01-23T07:48:30.802Z,21.53
2023-01-23T07:51:02.401Z,19.43
2023-01-23T07:53:30.742Z,21.80
2023-01-23T07:55:58.900Z,20.73
2023-01-23T07:58:27.439Z,21.27
2023-01-23T08:00:57.098Z,18.93
2023-01-23T08:03:29.075Z,22.80
2023-01-23T08:05:57.320Z,24.60
2023-01-23T08:08:25.660Z,20.00
2023-01-23T08:10:53.900Z,21.93
2023-01-23T08:13:22.351Z,25.47
2023-01-23T08:15:50.817Z,24.13
2023-01-23T08:18:20.515Z,23.20
2023-01-23T08:20:54.817Z,20.00
2023-01-23T08:23:25.240Z,22.50
2023-01-23T08:25:54.756Z,22.97
2023-01-23T08:28:24.112Z,21.77
2023-01-23T08:30:52.878Z,20.00
2023-01-23T08:33:23.401Z,21.20
2023-01-23T08:35:52.219Z,24.40
2023-01-23T08:38:21.224Z,21.27
2023-01-23T08:40:50.623Z,19.33
2023-01-23T08:43:20.719Z,21.17
2023-01-23T08:45:50.856Z,20.90
2023-01-23T08:48:19.761Z,20.20
2023-01-23T08:50:49.706Z,23.67
2023-01-23T08:53:18.206Z,22.00
2023-01-23T08:55:46.402Z,18.47
2023-01-23T08:58:14.601Z,23.13
2023-01-23T09:00:43.412Z,21.10
2023-01-23T09:03:11.830Z,21.10
2023-01-23T09:05:40.034Z,22.27
2023-01-23T09:08:09.593Z,20.63
2023-01-23T09:10:37.900Z,21.43
2023-01-23T09:13:06.440Z,20.50
2023-01-23T09:15:34.628Z,23.10
2023-01-23T09:18:02.812Z,23.97
2023-01-23T09:20:31.051Z,23.17
2023-01-23T09:22:59.222Z,20.80
2023-01-23T09:25:31.331Z,21.23
2023-01-23T09:27:59.477Z,22.30
2023-01-23T09:30:27.807Z,20.47
2023-01-23T09:32:56.032Z,24.17
2023-01-23T09:35:24.758Z,23.47
2023-01-23T09:38:02.044Z,25.90
2023-01-23T09:40:34.415Z,22.33
2023-01-23T09:43:10.740Z,25.17
2023-01-23T09:45:42.448Z,23.97
2023-01-23T09:48:21.760Z,21.20
2023-01-23T09:50:56.503Z,23.70
2023-01-23T09:53:27.926Z,24.80
2023-01-23T09:56:03.998Z,25.50
2023-01-23T09:58:38.279Z,25.33
2023-01-23T10:01:06.935Z,27.20
2023-01-23T10:03:35.198Z,24.90
2023-01-23T10:06:19.155Z,26.60
2023-01-23T10:08:59.671Z,29.67
2023-01-23T10:11:42.725Z,33.67
2023-01-23T10:14:38.213Z,25.77
2023-01-23T10:17:10.488Z,26.53
2023-01-23T10:19:50.760Z,29.20
2023-01-23T10:22:36.088Z,30.23
2023-01-23T10:25:13.876Z,25.40
2023-01-23T10:27:47.747Z,32.40
2023-01-23T10:30:27.647Z,28.97
2023-01-23T10:33:00.027Z,27.23
2023-01-23T10:35:35.978Z,25.40
2023-01-23T10:38:12.024Z,27.30
2023-01-23T10:40:57.514Z,23.37
2023-01-23T10:43:29.170Z,28.03
2023-01-23T10:45:57.393Z,21.77
2023-01-23T10:48:39.002Z,24.97
2023-01-23T10:51:44.986Z,26.13
2023-01-23T10:54:30.849Z,24.97
2023-01-23T10:57:01.797Z,20.93
2023-01-23T10:59:35.641Z,26.30
2023-01-23T11:02:20.644Z,25.53
2023-01-23T11:04:51.943Z,23.47
2023-01-23T11:07:22.072Z,25.90
2023-01-23T11:09:53.921Z,25.20
2023-01-23T11:12:24.693Z,26.40
2023-01-23T11:15:13.494Z,25.37
2023-01-23T11:17:44.398Z,19.10
2023-01-23T11:20:24.497Z,21.03
2023-01-23T11:23:03.555Z,20.07
2023-01-23T11:25:33.464Z,19.00
2023-01-23T11:28:03.536Z,20.90
2023-01-23T11:30:38.643Z,18.60
2023-01-23T11:33:15.316Z,17.40
2023-01-23T11:35:56.589Z,21.63
2023-01-23T11:38:31.247Z,19.57
2023-01-23T11:41:00.372Z,19.30
2023-01-23T11:43:28.821Z,21.67
2023-01-23T11:46:25.547Z,24.60
2023-01-23T11:49:14.572Z,22.13
2023-01-23T11:51:52.890Z,24.10
2023-01-23T11:54:43.925Z,19.37
2023-01-23T11:57:20.743Z,20.80
2023-01-23T12:00:07.401Z,17.10
2023-01-23T12:03:16.446Z,16.40
2023-01-23T12:09:00.825Z,19.27
2023-01-23T12:11:35.352Z,22.43
2023-01-23T12:14:15.223Z,18.47
2023-01-23T12:17:01.117Z,16.57
2023-01-23T12:19:42.231Z,20.73
2023-01-23T12:22:20.246Z,18.40
2023-01-23T12:25:05.134Z,20.40
2023-01-23T12:27:42.837Z,17.90
2023-01-23T12:33:36.979Z,20.87
2023-01-23T12:36:27.955Z,18.83
2023-01-23T12:39:07.221Z,17.60
2023-01-23T12:41:40.993Z,24.83
2023-01-23T12:44:16.158Z,25.53
2023-01-23T12:46:51.502Z,23.13
2023-01-23T12:49:28.264Z,26.30
2023-01-23T12:52:01.257Z,23.23
2023-01-23T12:54:38.874Z,28.30
2023-01-23T12:57:09.560Z,26.27
2023-01-23T13:00:00.057Z,24.40
2023-01-23T13:02:40.189Z,23.53
2023-01-23T13:05:19.923Z,23.30
2023-01-23T13:07:55.021Z,26.37
2023-01-23T13:11:00.671Z,25.50
2023-01-23T13:13:29.356Z,27.10
2023-01-23T13:16:10.577Z,27.97
2023-01-23T13:18:54.051Z,24.13
2023-01-23T13:21:39.630Z,28.20
2023-01-23T13:25:03.439Z,27.63
2023-01-23T13:27:40.001Z,22.50
2023-01-23T13:30:42.279Z,21.07
2023-01-23T13:33:55.296Z,20.00
2023-01-23T13:36:32.952Z,25.07
2023-01-23T13:39:03.457Z,23.90
2023-01-23T13:41:32.984Z,23.43
2023-01-23T13:44:21.323Z,24.53
2023-01-23T14:26:12.229Z,24.20
2023-01-23T14:28:40.724Z,23.77
2023-01-23T14:31:23.453Z,26.53
2023-01-23T14:34:09.141Z,22.80
2023-01-23T14:36:40.121Z,24.73
2023-01-23T14:39:08.667Z,26.10
2023-01-23T14:41:42.234Z,24.37
2023-01-23T14:44:21.534Z,24.80
2023-01-23T14:46:53.793Z,22.47
2023-01-23T14:49:27.683Z,24.63
2023-01-23T14:52:00.879Z,24.33
2023-01-23T14:54:33.221Z,21.73
2023-01-23T14:57:05.726Z,25.97
2023-01-23T14:59:37.470Z,22.80
2023-01-23T15:02:26.401Z,22.53
2023-01-23T15:05:23.476Z,28.00
2023-01-23T15:07:56.138Z,24.43
2023-01-23T15:10:26.954Z,27.20
2023-01-23T15:12:58.940Z,22.70
2023-01-23T15:15:29.190Z,21.47
2023-01-23T15:18:00.518Z,21.73
2023-01-23T15:20:36.639Z,21.87
2023-01-23T15:23:28.273Z,23.30
2023-01-23T15:26:23.588Z,27.77
2023-01-23T15:28:53.591Z,23.70
2023-01-23T15:31:31.008Z,20.97
2023-01-23T15:34:18.571Z,26.10
2023-01-23T15:36:54.396Z,24.37
2023-01-23T15:39:27.204Z,26.20
2023-01-23T15:41:58.466Z,24.40
2023-01-23T15:44:29.745Z,25.80
2023-01-23T15:47:01.146Z,23.50
2023-01-23T15:49:29.618Z,30.00
2023-01-23T15:52:00.662Z,24.50
2023-01-23T15:54:33.487Z,24.43
2023-01-23T15:57:09.250Z,22.47
2023-01-23T15:59:38.150Z,22.50
2023-01-23T16:02:12.902Z,21.40
2023-01-23T16:04:46.918Z,22.57
2023-01-23T16:07:24.367Z,24.63
2023-01-23T16:09:55.085Z,23.00
2023-01-23T16:12:28.267Z,25.53
2023-01-23T16:14:56.784Z,24.23
2023-01-23T16:17:25.084Z,21.83
2023-01-23T16:19:54.500Z,24.90
2023-01-23T16:22:29.344Z,23.77
2023-01-23T16:24:58.869Z,26.70
2023-01-23T16:27:28.236Z,26.90
2023-01-23T16:29:56.938Z,22.10
2023-01-23T16:32:25.731Z,24.07
2023-01-23T16:34:54.012Z,23.53
2023-01-23T16:37:22.304Z,27.40
2023-01-23T16:39:51.982Z,23.93
2023-01-23T16:42:23.745Z,26.10
2023-01-23T16:44:52.435Z,22.93
2023-01-23T16:47:20.678Z,23.80
2023-01-23T16:49:53.821Z,24.57
2023-01-23T16:52:25.168Z,24.50
2023-01-23T16:54:55.584Z,24.57
2023-01-23T16:57:25.075Z,31.17
2023-01-23T16:59:56.419Z,25.10
2023-01-23T17:02:30.298Z,21.77
2023-01-23T17:04:58.773Z,19.17
2023-01-23T17:07:27.012Z,29.17
2023-01-23T17:09:56.640Z,23.90
2023-01-23T17:12:29.624Z,25.03
2023-01-23T17:14:58.830Z,22.40
2023-01-23T17:17:30.635Z,22.10
2023-01-23T17:20:01.389Z,21.83
2023-01-23T17:22:31.646Z,21.97
2023-01-23T17:25:01.277Z,21.83
2023-01-23T17:27:30.223Z,21.00
2023-01-23T17:30:00.865Z,21.37
2023-01-23T17:32:35.304Z,22.90
2023-01-23T17:35:05.914Z,22.63
2023-01-23T17:37:35.571Z,20.10
2023-01-23T17:40:05.952Z,21.73
2023-01-23T17:42:34.380Z,22.80
2023-01-23T17:45:02.581Z,24.00
2023-01-23T17:47:32.825Z,22.17
2023-01-23T17:50:01.381Z,22.50
2023-01-23T17:52:31.151Z,23.00
2023-01-23T17:54:59.351Z,20.80
2023-01-23T17:57:29.322Z,21.43
2023-01-23T17:59:57.600Z,19.40
2023-01-23T18:02:28.935Z,19.67
2023-01-23T18:04:57.305Z,18.93
2023-01-23T18:07:25.469Z,20.60
2023-01-23T18:09:55.545Z,19.17
2023-01-23T18:12:37.251Z,19.70
2023-01-23T18:15:13.244Z,21.83
2023-01-23T18:17:50.883Z,20.57
2023-01-23T18:20:21.959Z,18.70
2023-01-23T18:22:51.018Z,21.10
2023-01-23T18:25:21.757Z,24.23
2023-01-23T18:27:55.326Z,19.23
2023-01-23T18:30:40.952Z,18.53
2023-01-23T18:33:27.161Z,18.20
2023-01-23T18:36:17.106Z,20.40
2023-01-23T18:38:59.846Z,21.93
2023-01-23T18:41:29.816Z,19.33
2023-01-23T18:44:08.092Z,21.43
2023-01-23T18:46:36.711Z,19.47
2023-01-23T18:49:05.504Z,19.07
2023-01-23T18:51:40.630Z,16.67
2023-01-23T18:54:21.451Z,22.60
2023-01-23T18:57:04.590Z,18.77
2023-01-23T18:59:44.171Z,26.57
2023-01-23T19:02:22.284Z,20.90
2023-01-23T19:04:56.058Z,18.03
2023-01-23T19:07:24.547Z,18.23
2023-01-23T19:09:53.272Z,21.27
2023-01-23T19:12:30.336Z,27.43
2023-01-23T19:15:16.305Z,20.83
2023-01-23T19:17:49.060Z,22.00
2023-01-23T19:20:27.903Z,19.23
2023-01-23T19:23:05.646Z,20.30
2023-01-23T19:25:34.173Z,21.73
2023-01-23T19:28:03.258Z,21.03
2023-01-23T19:30:33.590Z,22.40
2023-01-23T19:33:01.911Z,23.10
2023-01-23T19:35:30.300Z,20.00
2023-01-23T19:38:00.341Z,18.67
2023-01-23T19:40:28.544Z,20.70
2023-01-23T19:43:12.853Z,22.03
2023-01-23T19:45:44.079Z,21.83
2023-01-23T19:48:12.812Z,20.83
2023-01-23T19:50:41.574Z,18.00
2023-01-23T19:53:13.267Z,19.27
2023-01-23T19:55:42.179Z,18.80
2023-01-23T19:58:10.756Z,17.87
2023-01-23T20:00:38.969Z,22.17
2023-01-23T20:03:10.133Z,21.57
2023-01-23T20:05:38.334Z,22.50
2023-01-23T20:08:09.084Z,19.23
2023-01-23T20:10:37.481Z,20.30
2023-01-23T20:13:05.854Z,20.40
2023-01-23T20:15:34.069Z,16.97
2023-01-23T20:18:02.312Z,17.77
2023-01-23T20:20:31.814Z,19.77
2023-01-23T20:22:59.940Z,18.77
2023-01-23T20:25:28.100Z,17.00
2023-01-23T20:27:56.248Z,18.13
2023-01-23T20:30:24.996Z,19.60
2023-01-23T20:32:53.367Z,18.67
2023-01-23T20:35:21.689Z,20.53
2023-01-23T20:37:51.823Z,16.40
2023-01-23T20:40:20.529Z,20.70
2023-01-23T20:42:48.720Z,21.20
2023-01-23T20:45:17.432Z,20.83
2023-01-23T20:47:45.737Z,19.73
2023-01-23T20:50:14.183Z,19.83
2023-01-23T20:53:05.029Z,19.13
2023-01-23T20:55:34.759Z,18.20
2023-01-23T20:58:20.188Z,18.03
2023-01-23T21:00:48.615Z,19.33
2023-01-23T21:03:16.848Z,17.40
2023-01-23T21:05:45.041Z,22.10
2023-01-23T21:08:13.236Z,17.57
2023-01-23T21:10:42.943Z,19.63
2023-01-23T21:13:15.604Z,17.07
2023-01-23T21:15:43.955Z,19.10
2023-01-23T21:18:12.231Z,19.27
2023-01-23T21:20:40.444Z,20.47
2023-01-23T21:23:08.566Z,20.70
2023-01-23T21:25:37.112Z,21.37
2023-01-23T21:28:06.829Z,19.00
2023-01-23T21:30:35.203Z,19.20
2023-01-23T21:33:03.477Z,18.73
2023-01-23T21:35:31.641Z,21.20
2023-01-23T21:38:00.226Z,23.43
2023-01-23T21:40:28.562Z,22.57
2023-01-23T21:42:56.812Z,18.30
2023-01-23T21:45:26.559Z,20.97
2023-01-23T21:47:54.703Z,18.83
2023-01-23T21:50:22.849Z,19.50
2023-01-23T21:52:51.159Z,21.13
2023-01-23T21:55:20.549Z,20.27
2023-01-23T21:57:48.859Z,20.47
2023-01-23T22:00:35.043Z,21.90
2023-01-23T22:03:04.984Z,18.43
2023-01-23T22:05:35.660Z,20.00
2023-01-23T22:08:04.333Z,20.07
2023-01-23T22:10:33.319Z,21.53
2023-01-23T22:13:01.970Z,22.27
2023-01-23T22:15:30.129Z,20.10
2023-01-23T22:17:58.436Z,20.57
2023-01-23T22:20:28.086Z,19.77
2023-01-23T22:22:56.461Z,21.27
2023-01-23T22:25:24.831Z,21.07
2023-01-23T22:27:53.075Z,21.60
2023-01-23T22:30:21.284Z,19.50
2023-01-23T22:32:49.628Z,17.70
2023-01-23T22:35:18.113Z,22.20
2023-01-23T22:37:47.925Z,20.90
2023-01-23T22:40:16.232Z,24.00
2023-01-23T22:42:44.463Z,24.40
2023-01-23T22:45:13.151Z,18.67
2023-01-23T22:47:41.261Z,18.40
2023-01-23T22:50:10.941Z,25.20
2023-01-23T22:52:39.316Z,21.10
2023-01-23T22:55:09.735Z,20.77
2023-01-23T22:57:38.046Z,22.37
2023-01-23T23:00:10.716Z,18.97
2023-01-23T23:02:39.644Z,20.87
2023-01-23T23:05:08.919Z,25.13
2023-01-23T23:07:37.888Z,18.93
2023-01-23T23:10:06.781Z,22.07
2023-01-23T23:12:36.540Z,20.40
2023-01-23T23:15:05.460Z,23.20
2023-01-23T23:17:33.629Z,19.37
2023-01-23T23:20:01.736Z,20.47
2023-01-23T23:22:30.015Z,23.00
2023-01-23T23:24:58.278Z,23.27
2023-01-23T23:27:26.880Z,22.57
2023-01-23T23:29:56.339Z,23.47
2023-01-23T23:32:24.709Z,21.07
2023-01-23T23:34:52.868Z,22.77
2023-01-23T23:37:21.082Z,21.63
2023-01-23T23:39:49.448Z,24.40
2023-01-23T23:42:17.623Z,22.83
2023-01-23T23:44:45.687Z,26.53
2023-01-23T23:47:15.547Z,25.73
2023-01-23T23:49:43.757Z,22.27
2023-01-23T23:52:11.894Z,33.17
2023-01-23T23:54:40.087Z,25.43
2023-01-23T23:57:08.237Z,26.60
2023-01-23T23:59:36.430Z,26.13
